Terminal Aerodrome Forecast
Issued by NWS Cleveland, OH

Home | Current Version | Previous Version | Text Only | Print | Product List | Glossary On
Versions: 1 2 3 4 5 6 7 8 9 10 11 12 13 14 15 16 17 18 19 20 21 22 23 24 25 26
000
FTUS41 KCLE 242335
TAFCLE
TAF
KCLE 242335Z 2500/2606 10012KT P6SM SCT250
     FM250500 11010KT P6SM OVC100
     FM251000 12008KT P6SM OVC035
      TEMPO 2511/2515 -SHRA OVC025
     FM251600 14012KT P6SM BKN050=

USA.gov is the U.S. government's official web portal to all federal, state and local government web resources and services.